createdAt,value
2023-04-27T00:01:15.814Z,7.80
2023-04-27T00:04:04.823Z,7.80
2023-04-27T00:06:52.542Z,7.70
2023-04-27T00:09:40.140Z,7.50
2023-04-27T00:12:27.759Z,7.30
2023-04-27T00:15:15.491Z,7.20
2023-04-27T00:18:03.088Z,7.30
2023-04-27T00:20:50.626Z,7.40
2023-04-27T00:23:38.181Z,7.40
2023-04-27T00:26:26.890Z,7.50
2023-04-27T00:29:14.578Z,7.50
2023-04-27T00:32:02.390Z,7.50
2023-04-27T00:34:50.034Z,7.50
2023-04-27T00:37:37.529Z,7.40
2023-04-27T00:40:25.133Z,7.40
2023-04-27T00:43:13.392Z,7.10
2023-04-27T00:46:01.219Z,7.20
2023-04-27T00:48:48.897Z,7.20
2023-04-27T00:51:36.590Z,7.20
2023-04-27T00:54:24.761Z,7.20
2023-04-27T00:57:12.329Z,7.30
2023-04-27T01:00:06.999Z,7.30
2023-04-27T01:02:56.245Z,7.00
2023-04-27T01:05:44.197Z,6.90
2023-04-27T01:08:32.164Z,6.70
2023-04-27T01:11:20.073Z,6.60
2023-04-27T01:14:08.008Z,6.60
2023-04-27T01:16:57.622Z,6.60
2023-04-27T01:19:45.125Z,6.50
2023-04-27T01:22:32.888Z,6.20
2023-04-27T01:25:20.634Z,6.30
2023-04-27T01:28:08.081Z,6.40
2023-04-27T01:30:55.578Z,6.50
2023-04-27T01:33:43.640Z,6.70
2023-04-27T01:36:32.338Z,6.60
2023-04-27T01:39:19.896Z,6.60
2023-04-27T01:42:07.900Z,6.50
2023-04-27T01:44:55.354Z,6.30
2023-04-27T01:47:42.864Z,6.10
2023-04-27T01:50:30.607Z,6.00
2023-04-27T01:53:18.104Z,6.10
2023-04-27T01:56:06.743Z,6.00
2023-04-27T01:58:54.284Z,6.10
2023-04-27T02:01:41.805Z,6.10
2023-04-27T02:04:29.597Z,6.10
2023-04-27T02:07:17.196Z,6.30
2023-04-27T02:10:05.073Z,6.50
2023-04-27T02:12:52.524Z,6.40
2023-04-27T02:15:40.158Z,6.30
2023-04-27T02:18:28.071Z,6.40
2023-04-27T02:21:16.064Z,6.30
2023-04-27T02:24:04.474Z,6.30
2023-04-27T02:26:54.128Z,6.20
2023-04-27T02:29:41.588Z,6.30
2023-04-27T02:32:29.545Z,6.40
2023-04-27T02:35:17.798Z,6.20
2023-04-27T02:38:05.368Z,6.00
2023-04-27T02:40:55.854Z,5.70
2023-04-27T02:43:43.289Z,5.80
2023-04-27T02:46:30.865Z,6.00
2023-04-27T02:49:18.354Z,5.90
2023-04-27T02:52:06.427Z,5.80
2023-04-27T02:54:53.942Z,5.60
2023-04-27T02:57:41.408Z,5.40
2023-04-27T03:00:28.871Z,5.40
2023-04-27T03:03:16.448Z,5.30
2023-04-27T03:06:04.207Z,5.20
2023-04-27T03:08:51.712Z,5.20
2023-04-27T03:11:39.507Z,5.30
2023-04-27T03:14:29.168Z,5.40
2023-04-27T03:17:16.654Z,5.40
2023-04-27T03:20:07.039Z,5.50
2023-04-27T03:22:54.526Z,5.50
2023-04-27T03:25:42.011Z,5.50
2023-04-27T03:28:29.472Z,5.50
2023-04-27T03:31:16.952Z,5.50
2023-04-27T03:34:04.379Z,5.70
2023-04-27T03:36:51.772Z,5.70
2023-04-27T03:39:39.393Z,5.80
2023-04-27T03:42:26.915Z,6.00
2023-04-27T03:45:16.287Z,6.20
2023-04-27T03:48:04.261Z,6.20
2023-04-27T03:50:51.745Z,6.10
2023-04-27T03:53:39.278Z,5.90
2023-04-27T03:56:26.777Z,5.80
2023-04-27T03:59:14.476Z,5.80
2023-04-27T04:02:03.995Z,5.80
2023-04-27T04:04:51.790Z,5.90
2023-04-27T04:07:39.386Z,6.00
2023-04-27T04:10:26.905Z,6.10
2023-04-27T04:13:14.537Z,6.10
2023-04-27T04:16:07.441Z,6.00
2023-04-27T04:18:54.922Z,6.00
2023-04-27T04:21:42.455Z,6.00
2023-04-27T04:24:29.844Z,5.70
2023-04-27T04:27:17.394Z,5.90
2023-04-27T04:30:07.060Z,5.80
2023-04-27T04:32:55.258Z,5.70
2023-04-27T04:35:43.227Z,5.50
2023-04-27T04:38:30.846Z,5.50
2023-04-27T04:41:19.268Z,5.50
2023-04-27T04:44:07.082Z,5.70
2023-04-27T04:46:55.540Z,5.50
2023-04-27T04:49:43.158Z,5.60
2023-04-27T04:52:30.667Z,5.60
2023-04-27T04:55:18.301Z,5.80
2023-04-27T04:58:05.806Z,6.00
2023-04-27T05:00:53.251Z,6.80
2023-04-27T05:03:40.976Z,8.00
2023-04-27T05:06:29.478Z,9.20
2023-04-27T05:09:16.949Z,9.80
2023-04-27T05:12:04.902Z,10.40
2023-04-27T05:14:52.967Z,10.40
2023-04-27T05:17:40.711Z,10.80
2023-04-27T05:20:35.215Z,11.70
2023-04-27T05:23:22.691Z,12.50
2023-04-27T05:26:15.079Z,12.60
2023-04-27T05:29:02.633Z,12.50
2023-04-27T05:31:50.215Z,12.80
2023-04-27T05:34:44.191Z,13.00
2023-04-27T05:37:32.273Z,13.30
2023-04-27T05:40:19.954Z,13.50
2023-04-27T05:43:10.195Z,14.20
2023-04-27T05:45:57.782Z,14.20
2023-04-27T05:48:45.538Z,14.70
2023-04-27T05:51:33.518Z,14.50
2023-04-27T05:54:21.128Z,14.20
2023-04-27T05:57:08.747Z,14.70
2023-04-27T05:59:56.477Z,15.10
2023-04-27T06:02:44.280Z,15.80
2023-04-27T06:05:32.686Z,16.30
2023-04-27T06:08:20.580Z,16.00
2023-04-27T06:11:08.329Z,16.40
2023-04-27T06:13:55.995Z,16.50
2023-04-27T06:16:44.075Z,16.80
2023-04-27T06:19:32.027Z,16.80
2023-04-27T06:22:19.699Z,15.80
2023-04-27T06:25:08.054Z,16.50
2023-04-27T06:28:04.855Z,17.00
2023-04-27T06:30:53.739Z,17.10
2023-04-27T06:33:41.879Z,16.30
2023-04-27T06:36:29.557Z,16.70
2023-04-27T06:39:17.115Z,17.50
2023-04-27T06:42:05.140Z,18.10
2023-04-27T06:44:56.064Z,18.10
2023-04-27T06:47:44.232Z,17.80
2023-04-27T06:50:31.985Z,16.00
2023-04-27T06:53:20.056Z,16.90
2023-04-27T06:56:11.996Z,17.20
2023-04-27T06:58:59.970Z,15.70
2023-04-27T07:01:47.691Z,14.90
2023-04-27T07:04:36.812Z,14.40
2023-04-27T07:07:27.281Z,15.50
2023-04-27T07:10:23.906Z,16.30
2023-04-27T07:13:19.711Z,17.30
2023-04-27T07:16:10.646Z,16.20
2023-04-27T07:19:04.168Z,15.00
2023-04-27T07:21:55.097Z,14.70
2023-04-27T07:24:42.817Z,16.40
2023-04-27T07:27:33.058Z,17.80
2023-04-27T07:30:20.990Z,18.20
2023-04-27T07:33:12.554Z,16.30
2023-04-27T07:36:01.177Z,17.00
2023-04-27T07:38:49.060Z,18.10
2023-04-27T07:41:37.037Z,18.50
2023-04-27T07:44:24.979Z,17.50
2023-04-27T07:47:20.876Z,17.00
2023-04-27T07:50:09.052Z,16.90
2023-04-27T07:52:57.688Z,17.40
2023-04-27T07:55:46.051Z,16.70
2023-04-27T07:58:38.118Z,18.10
2023-04-27T08:01:26.216Z,19.60
2023-04-27T08:04:16.595Z,20.70
2023-04-27T08:07:07.115Z,20.70
2023-04-27T08:09:56.122Z,19.80
2023-04-27T08:12:46.446Z,19.40
2023-04-27T08:15:37.325Z,19.80
2023-04-27T08:18:26.397Z,19.30
2023-04-27T08:21:14.352Z,19.80
2023-04-27T08:24:08.403Z,20.40
2023-04-27T08:26:56.240Z,19.40
2023-04-27T08:29:50.248Z,19.60
2023-04-27T08:32:38.098Z,20.50
2023-04-27T08:35:26.193Z,20.20
2023-04-27T08:38:13.912Z,19.10
2023-04-27T08:41:18.017Z,18.90
2023-04-27T08:44:11.644Z,20.70
2023-04-27T08:47:00.709Z,21.90
2023-04-27T08:49:48.940Z,21.90
2023-04-27T08:52:38.175Z,21.20
2023-04-27T08:55:28.660Z,22.10
2023-04-27T08:58:18.886Z,21.30
2023-04-27T09:01:07.844Z,21.10
2023-04-27T09:04:00.849Z,22.40
2023-04-27T09:06:51.085Z,22.20
2023-04-27T09:09:40.259Z,21.60
2023-04-27T09:12:30.006Z,22.60
2023-04-27T09:15:23.339Z,23.20
2023-04-27T09:18:31.430Z,23.60
2023-04-27T09:21:39.259Z,23.50
2023-04-27T09:24:33.334Z,24.10
2023-04-27T09:27:23.540Z,24.00
2023-04-27T09:30:19.076Z,23.70
2023-04-27T09:33:13.226Z,24.70
2023-04-27T09:36:10.957Z,25.00
2023-04-27T09:39:04.518Z,26.70
2023-04-27T09:41:55.108Z,25.10
2023-04-27T09:44:47.113Z,24.90
2023-04-27T09:47:35.222Z,24.40
2023-04-27T09:50:28.115Z,21.40
2023-04-27T09:53:27.245Z,20.90
2023-04-27T09:56:42.582Z,20.80
2023-04-27T09:59:39.115Z,20.10
2023-04-27T10:05:44.724Z,22.00
2023-04-27T10:08:38.865Z,23.20
2023-04-27T10:11:44.370Z,24.40
2023-04-27T10:14:32.455Z,24.30
2023-04-27T10:17:35.966Z,23.30
2023-04-27T10:20:43.155Z,25.40
2023-04-27T10:23:45.612Z,25.10
2023-04-27T10:26:38.661Z,25.40
2023-04-27T10:29:36.966Z,21.50
2023-04-27T10:32:27.299Z,21.80
2023-04-27T10:35:15.509Z,22.40
2023-04-27T10:38:10.504Z,20.00
2023-04-27T10:41:03.464Z,19.70
2023-04-27T10:43:51.675Z,21.90
2023-04-27T10:46:50.674Z,21.80
2023-04-27T10:49:41.453Z,24.10
2023-04-27T10:52:32.041Z,26.80
2023-04-27T10:55:23.146Z,28.00
2023-04-27T10:58:13.476Z,27.30
2023-04-27T11:01:04.220Z,27.40
2023-04-27T11:03:58.012Z,27.20
2023-04-27T11:06:48.645Z,26.40
2023-04-27T11:09:42.740Z,26.80
2023-04-27T11:12:36.559Z,26.80
2023-04-27T11:15:28.698Z,25.70
2023-04-27T11:18:29.486Z,25.30
2023-04-27T11:21:21.870Z,26.30
2023-04-27T11:24:15.686Z,26.70
2023-04-27T11:27:04.592Z,27.70
2023-04-27T11:29:56.924Z,26.80
2023-04-27T11:32:48.017Z,26.70
2023-04-27T11:35:36.134Z,25.90
2023-04-27T11:38:24.076Z,24.30
2023-04-27T11:41:11.755Z,23.00
2023-04-27T11:44:15.329Z,22.90
2023-04-27T11:47:12.903Z,22.30
2023-04-27T11:50:12.627Z,22.60
2023-04-27T11:53:24.882Z,24.30
2023-04-27T11:56:19.668Z,24.80
2023-04-27T11:59:57.280Z,27.40
2023-04-27T12:02:47.881Z,28.90
2023-04-27T12:05:51.589Z,28.80
2023-04-27T12:08:42.184Z,29.40
2023-04-27T12:11:34.678Z,30.00
2023-04-27T12:14:24.808Z,28.60
2023-04-27T12:17:12.640Z,29.30
2023-04-27T12:20:00.560Z,23.40
2023-04-27T12:22:48.730Z,21.90
2023-04-27T12:25:37.104Z,21.10
2023-04-27T12:28:24.756Z,20.00
2023-04-27T12:31:16.634Z,20.80
2023-04-27T12:34:04.279Z,21.80
2023-04-27T12:36:52.478Z,21.60
2023-04-27T12:39:40.099Z,21.80
2023-04-27T12:42:28.085Z,22.90
2023-04-27T12:45:16.894Z,21.50
2023-04-27T12:48:05.067Z,19.40
2023-04-27T12:50:54.143Z,21.90
2023-04-27T12:53:42.090Z,21.00
2023-04-27T12:56:33.589Z,19.50
2023-04-27T12:59:21.418Z,20.20
2023-04-27T13:02:12.713Z,20.90
2023-04-27T13:05:00.323Z,20.00
2023-04-27T13:07:48.265Z,19.90
2023-04-27T13:10:36.723Z,21.70
2023-04-27T13:13:24.461Z,23.10
2023-04-27T13:16:20.448Z,24.10
2023-04-27T13:19:11.499Z,24.80
2023-04-27T13:22:04.642Z,24.40
2023-04-27T13:24:55.683Z,25.80
2023-04-27T13:27:46.353Z,26.50
2023-04-27T13:30:37.952Z,28.00
2023-04-27T13:33:27.254Z,26.70
2023-04-27T13:36:21.504Z,24.00
2023-04-27T13:39:09.375Z,23.90
2023-04-27T13:41:57.861Z,23.20
2023-04-27T13:44:49.603Z,22.20
2023-04-27T13:47:37.702Z,21.70
2023-04-27T13:50:25.965Z,21.40
2023-04-27T13:53:14.775Z,21.90
2023-04-27T13:56:02.356Z,22.10
2023-04-27T13:58:50.221Z,20.90
2023-04-27T14:01:45.458Z,19.70
2023-04-27T14:04:33.868Z,20.80
2023-04-27T14:07:25.699Z,21.80
2023-04-27T14:10:16.132Z,24.90
2023-04-27T14:13:08.205Z,25.90
2023-04-27T14:15:58.069Z,25.80
2023-04-27T14:18:48.273Z,26.40
2023-04-27T14:21:38.736Z,26.70
2023-04-27T14:24:27.100Z,24.90
2023-04-27T14:27:17.372Z,22.20
2023-04-27T14:30:08.386Z,24.90
2023-04-27T14:32:58.566Z,25.90
2023-04-27T14:35:47.895Z,27.00
2023-04-27T14:38:38.050Z,27.70
2023-04-27T14:41:28.877Z,27.80
2023-04-27T14:44:19.483Z,25.30
2023-04-27T14:47:11.601Z,23.10
2023-04-27T14:50:02.654Z,21.80
2023-04-27T14:52:51.699Z,22.50
2023-04-27T14:55:41.263Z,24.40
2023-04-27T14:58:29.518Z,22.10
2023-04-27T15:01:18.697Z,24.20
2023-04-27T15:04:35.811Z,26.40
2023-04-27T15:07:21.674Z,27.40
2023-04-27T15:10:09.948Z,23.80
2023-04-27T15:13:02.503Z,23.70
2023-04-27T15:15:57.190Z,23.60
2023-04-27T15:18:49.662Z,23.00
2023-04-27T15:21:40.824Z,21.80
2023-04-27T15:24:28.665Z,23.40
2023-04-27T15:27:16.647Z,22.80
2023-04-27T15:30:12.137Z,22.90
2023-04-27T15:33:01.862Z,21.20
2023-04-27T15:35:51.265Z,21.50
2023-04-27T15:38:41.646Z,21.90
2023-04-27T15:41:29.550Z,21.50
2023-04-27T15:44:20.065Z,21.30
2023-04-27T15:47:21.359Z,21.40
2023-04-27T15:50:09.599Z,22.20
2023-04-27T15:52:57.243Z,22.20
2023-04-27T15:55:44.862Z,21.30
2023-04-27T15:58:32.796Z,21.60
2023-04-27T16:01:20.714Z,21.00
2023-04-27T16:04:08.543Z,20.90
2023-04-27T16:06:56.422Z,20.30
2023-04-27T16:09:44.586Z,20.30
2023-04-27T16:12:32.580Z,20.50
2023-04-27T16:15:20.738Z,20.60
2023-04-27T16:18:11.870Z,21.00
2023-04-27T16:21:03.446Z,21.50
2023-04-27T16:23:54.126Z,21.70
2023-04-27T16:26:47.940Z,21.80
2023-04-27T16:29:39.772Z,22.80
2023-04-27T16:32:35.544Z,23.00
2023-04-27T16:38:48.162Z,23.10
2023-04-27T16:41:38.613Z,20.70
2023-04-27T16:44:27.600Z,17.80
2023-04-27T16:47:17.873Z,17.60
2023-04-27T16:50:06.596Z,18.50
2023-04-27T16:52:54.348Z,17.90
2023-04-27T16:55:42.352Z,17.60
2023-04-27T16:58:30.764Z,17.60
2023-04-27T17:01:18.411Z,17.80
2023-04-27T17:04:06.541Z,17.60
2023-04-27T17:06:54.582Z,17.60
2023-04-27T17:09:42.181Z,17.60
2023-04-27T17:12:29.996Z,18.20
2023-04-27T17:15:18.496Z,17.10
2023-04-27T17:18:06.384Z,17.10
2023-04-27T17:20:54.133Z,16.70
2023-04-27T17:23:41.708Z,16.80
2023-04-27T17:26:29.211Z,16.80
2023-04-27T17:29:17.132Z,16.60
2023-04-27T17:32:08.632Z,16.80
2023-04-27T17:34:57.603Z,16.80
2023-04-27T17:37:48.752Z,16.40
2023-04-27T17:40:36.720Z,16.60
2023-04-27T17:43:24.245Z,16.50
2023-04-27T17:46:14.203Z,16.40
2023-04-27T17:49:01.731Z,16.40
2023-04-27T17:51:49.405Z,16.30
2023-04-27T17:54:37.393Z,16.30
2023-04-27T17:57:25.525Z,16.30
2023-04-27T18:00:14.859Z,16.40
2023-04-27T18:03:02.577Z,16.30
2023-04-27T18:05:50.553Z,16.20
2023-04-27T18:08:38.604Z,16.20
2023-04-27T18:11:26.413Z,16.30
2023-04-27T18:14:14.138Z,16.40
2023-04-27T18:17:01.768Z,16.40
2023-04-27T18:20:00.883Z,16.50
2023-04-27T18:22:55.007Z,16.50
2023-04-27T18:25:42.716Z,16.30
2023-04-27T18:28:30.369Z,16.40
2023-04-27T18:31:19.200Z,16.50
2023-04-27T18:34:06.780Z,16.30
2023-04-27T18:36:54.389Z,16.10
2023-04-27T18:39:42.003Z,15.90
2023-04-27T18:42:29.868Z,15.80
2023-04-27T18:45:20.310Z,15.60
2023-04-27T18:48:11.658Z,15.40
2023-04-27T18:50:59.644Z,15.40
2023-04-27T18:53:47.172Z,15.30
2023-04-27T18:56:35.782Z,15.30
2023-04-27T18:59:32.939Z,15.20
2023-04-27T19:02:20.564Z,15.20
2023-04-27T19:05:12.808Z,14.90
2023-04-27T19:08:04.078Z,14.70
2023-04-27T19:10:54.940Z,14.70
2023-04-27T19:13:44.141Z,14.70
2023-04-27T19:16:31.761Z,14.50
2023-04-27T19:19:19.474Z,14.10
2023-04-27T19:22:08.204Z,14.00
2023-04-27T19:24:56.089Z,14.10
2023-04-27T19:27:43.671Z,14.10
2023-04-27T19:30:31.489Z,14.00
2023-04-27T19:33:20.394Z,14.00
2023-04-27T19:36:08.356Z,14.30
2023-04-27T19:41:25.348Z,14.10
2023-04-27T19:44:13.094Z,14.10
2023-04-27T19:47:01.119Z,14.10
2023-04-27T19:49:50.995Z,14.00
2023-04-27T19:52:38.865Z,13.80
2023-04-27T19:55:26.621Z,13.80
2023-04-27T19:58:14.265Z,13.80
2023-04-27T20:01:02.608Z,13.70
2023-04-27T20:03:53.520Z,13.60
2023-04-27T20:06:43.407Z,13.60
2023-04-27T20:09:31.120Z,13.70
2023-04-27T20:12:40.205Z,13.70
2023-04-27T20:15:26.988Z,13.70
2023-04-27T20:18:14.626Z,13.70
2023-04-27T20:21:03.497Z,13.60
2023-04-27T20:23:51.488Z,13.60
2023-04-27T20:26:39.424Z,13.50
2023-04-27T20:29:27.326Z,13.60
2023-04-27T20:32:16.028Z,13.50
2023-04-27T20:35:05.206Z,13.40
2023-04-27T20:37:56.570Z,13.40
2023-04-27T20:40:45.262Z,13.40
2023-04-27T20:43:32.924Z,13.30
2023-04-27T20:46:22.686Z,13.30
2023-04-27T20:49:10.267Z,13.30
2023-04-27T20:51:57.786Z,13.40
2023-04-27T20:54:45.653Z,13.30
2023-04-27T20:57:33.275Z,13.30
2023-04-27T21:00:21.193Z,13.30
2023-04-27T21:03:08.816Z,13.30
2023-04-27T21:05:59.094Z,13.20
2023-04-27T21:08:47.604Z,13.20
2023-04-27T21:11:36.535Z,13.40
2023-04-27T21:14:24.767Z,13.40
2023-04-27T21:17:15.240Z,13.50
2023-04-27T21:20:02.716Z,13.40
2023-04-27T21:22:50.462Z,13.40
2023-04-27T21:25:38.060Z,13.40
2023-04-27T21:28:25.678Z,13.30
2023-04-27T21:31:13.301Z,13.30
2023-04-27T21:34:01.790Z,13.20
2023-04-27T21:36:52.486Z,13.20
2023-04-27T21:39:40.005Z,13.30
2023-04-27T21:42:27.496Z,13.10
2023-04-27T21:45:14.980Z,13.00
2023-04-27T21:48:02.608Z,12.90
2023-04-27T21:50:50.497Z,12.80
2023-04-27T21:53:38.073Z,12.90
2023-04-27T21:56:25.948Z,12.90
2023-04-27T21:59:13.559Z,12.90
2023-04-27T22:02:06.663Z,12.80
2023-04-27T22:04:57.827Z,12.60
2023-04-27T22:07:46.540Z,12.80
2023-04-27T22:10:34.190Z,12.90
2023-04-27T22:13:21.970Z,12.80
2023-04-27T22:16:11.037Z,12.90
2023-04-27T22:19:00.176Z,13.00
2023-04-27T22:21:47.621Z,13.10
2023-04-27T22:24:35.254Z,13.10
2023-04-27T22:27:23.635Z,13.10
2023-04-27T22:30:14.491Z,13.00
2023-04-27T22:33:03.194Z,12.90
2023-04-27T22:35:50.793Z,12.60
2023-04-27T22:38:38.531Z,12.80
2023-04-27T22:41:26.159Z,12.70
2023-04-27T22:44:13.736Z,12.80
2023-04-27T22:47:02.496Z,12.90
2023-04-27T22:49:50.102Z,12.70
2023-04-27T22:52:39.152Z,12.70
2023-04-27T22:55:26.845Z,12.70
2023-04-27T22:58:14.473Z,12.80
2023-04-27T23:01:02.798Z,12.90
2023-04-27T23:03:52.759Z,12.90
2023-04-27T23:06:40.950Z,12.80
2023-04-27T23:09:28.432Z,12.70
2023-04-27T23:12:16.548Z,12.70
2023-04-27T23:15:04.487Z,12.60
2023-04-27T23:17:52.258Z,12.60
2023-04-27T23:20:39.917Z,12.60
2023-04-27T23:23:27.820Z,12.60
2023-04-27T23:26:16.408Z,12.60
2023-04-27T23:29:04.538Z,12.60
2023-04-27T23:31:52.088Z,12.50
2023-04-27T23:34:39.778Z,12.60
2023-04-27T23:37:27.739Z,12.70
2023-04-27T23:40:15.651Z,12.70
2023-04-27T23:43:03.272Z,12.70
2023-04-27T23:45:52.152Z,12.50
2023-04-27T23:48:39.700Z,12.30
2023-04-27T23:51:27.256Z,12.50
2023-04-27T23:54:15.153Z,12.60
2023-04-27T23:57:04.267Z,12.70
2023-04-27T23:59:52.205Z,12.60
